createdAt,value
2023-04-24T08:21:58.085Z,6.42
2023-04-24T08:24:24.751Z,6.49
2023-04-24T08:26:52.474Z,6.56
2023-04-24T08:29:18.881Z,6.63
2023-04-24T08:31:45.586Z,6.67
2023-04-24T08:34:12.009Z,6.73
2023-04-24T08:36:47.001Z,6.68
2023-04-24T08:39:15.087Z,6.68
2023-04-24T08:41:46.201Z,6.55
2023-04-24T08:44:17.277Z,6.50
2023-04-24T08:46:48.649Z,6.38
2023-04-24T08:49:19.832Z,6.40
2023-04-24T08:51:49.051Z,6.57
2023-04-24T08:54:15.541Z,6.64
2023-04-24T08:56:49.070Z,6.63
2023-04-24T08:59:20.106Z,6.62
2023-04-24T09:01:49.234Z,6.59
2023-04-24T09:04:18.202Z,6.59
2023-04-24T09:06:46.013Z,6.53
2023-04-24T09:09:13.888Z,6.52
2023-04-24T09:11:40.966Z,6.57
2023-04-24T09:14:07.829Z,6.69
2023-04-24T09:16:36.488Z,6.63
2023-04-24T09:19:04.131Z,6.56
2023-04-24T09:21:35.393Z,6.52
2023-04-24T09:24:06.984Z,6.53
2023-04-24T09:26:36.758Z,6.37
2023-04-24T09:29:05.608Z,6.53
2023-04-24T09:31:32.726Z,6.61
2023-04-24T09:34:01.804Z,6.67
2023-04-24T09:36:46.049Z,6.65
2023-04-24T09:39:16.717Z,6.63
2023-04-24T09:41:54.709Z,6.61
2023-04-24T09:44:26.213Z,6.35
2023-04-24T09:46:55.683Z,6.64
2023-04-24T09:49:30.320Z,6.68
2023-04-24T09:52:07.688Z,6.39
2023-04-24T09:54:34.385Z,6.77
2023-04-24T09:57:03.764Z,6.94
2023-04-24T09:59:30.903Z,7.03
2023-04-24T10:01:59.613Z,7.16
2023-04-24T10:04:28.043Z,7.28
2023-04-24T10:06:56.936Z,7.36
2023-04-24T10:09:25.753Z,7.42
2023-04-24T10:11:54.425Z,7.38
2023-04-24T10:14:26.092Z,7.35
2023-04-24T10:16:55.444Z,7.35
2023-04-24T10:19:21.972Z,7.35
2023-04-24T10:21:50.614Z,7.33
2023-04-24T10:24:19.177Z,7.22
2023-04-24T10:26:46.869Z,7.32
2023-04-24T10:29:16.351Z,7.43
2023-04-24T10:31:46.408Z,7.43
2023-04-24T10:34:13.600Z,7.24
2023-04-24T10:36:46.958Z,7.05
2023-04-24T10:39:16.239Z,6.74
2023-04-24T10:41:42.826Z,6.76
2023-04-24T10:44:14.059Z,6.70
2023-04-24T10:46:44.844Z,6.71
2023-04-24T10:49:11.435Z,6.76
2023-04-24T10:51:53.745Z,6.86
2023-04-24T10:54:43.515Z,6.87
2023-04-24T10:57:22.912Z,6.93
2023-04-24T11:00:10.852Z,7.00
2023-04-24T11:02:39.510Z,7.12
2023-04-24T11:05:07.127Z,7.13
2023-04-24T11:08:15.595Z,7.09
2023-04-24T11:10:48.579Z,7.19
2023-04-24T11:13:22.206Z,7.23
2023-04-24T11:16:30.022Z,7.32
2023-04-24T11:19:17.801Z,7.48
2023-04-24T11:21:58.604Z,7.62
2023-04-24T11:24:26.443Z,7.86
2023-04-24T11:26:57.830Z,8.10
2023-04-24T11:29:40.006Z,8.19
2023-04-24T11:32:38.421Z,8.22
2023-04-24T11:35:28.688Z,8.13
2023-04-24T11:40:26.501Z,7.98
2023-04-24T11:42:56.382Z,7.90
2023-04-24T11:45:28.360Z,7.88
2023-04-24T11:47:55.036Z,7.87
2023-04-24T11:50:30.070Z,7.89
2023-04-24T11:52:57.012Z,7.80
2023-04-24T11:55:24.506Z,7.83
2023-04-24T11:57:53.895Z,7.84
2023-04-24T12:00:22.735Z,7.83
2023-04-24T12:02:50.475Z,7.79
2023-04-24T12:05:28.181Z,7.73
2023-04-24T12:07:55.391Z,7.61
2023-04-24T12:10:23.567Z,7.63
2023-04-24T12:12:52.295Z,7.71
2023-04-24T12:15:21.148Z,7.80
2023-04-24T12:17:48.007Z,8.01
2023-04-24T12:20:15.892Z,8.16
2023-04-24T12:22:57.215Z,8.24
2023-04-24T12:25:29.396Z,8.30
2023-04-24T12:28:13.051Z,8.39
2023-04-24T12:30:49.333Z,8.44
2023-04-24T12:33:22.975Z,8.45
2023-04-24T12:35:52.853Z,8.56
2023-04-24T12:38:26.676Z,8.58
2023-04-24T12:41:11.071Z,8.65
2023-04-24T12:43:41.275Z,8.67
2023-04-24T12:46:07.826Z,8.66
2023-04-24T12:48:34.620Z,8.65
2023-04-24T12:51:04.193Z,8.63
2023-04-24T12:53:32.065Z,8.66
2023-04-24T12:55:58.586Z,8.64
2023-04-24T12:58:26.066Z,8.63
2023-04-24T13:00:52.622Z,8.67
2023-04-24T13:03:21.357Z,8.64
2023-04-24T13:05:48.093Z,8.60
2023-04-24T13:08:14.545Z,8.45
2023-04-24T13:10:43.092Z,8.58
2023-04-24T13:13:10.052Z,8.62
2023-04-24T13:15:36.612Z,8.66
2023-04-24T13:18:04.076Z,8.75
2023-04-24T13:20:30.921Z,8.80
2023-04-24T13:22:57.433Z,8.79
2023-04-24T13:25:24.611Z,8.83
2023-04-24T13:27:51.821Z,8.79
2023-04-24T13:30:18.260Z,8.73
2023-04-24T13:32:44.980Z,8.74
2023-04-24T13:35:11.436Z,8.76
2023-04-24T13:37:39.954Z,8.71
2023-04-24T13:40:07.990Z,8.67
2023-04-24T13:42:34.839Z,8.67
2023-04-24T13:45:06.020Z,8.65
2023-04-24T13:47:42.065Z,8.65
2023-04-24T13:50:11.091Z,8.59
2023-04-24T13:52:38.111Z,8.61
2023-04-24T13:55:04.838Z,8.62
2023-04-24T13:57:32.602Z,8.66
2023-04-24T14:00:03.616Z,8.70
2023-04-24T14:02:30.319Z,8.75
2023-04-24T14:05:00.342Z,8.76
2023-04-24T14:07:27.020Z,8.82
2023-04-24T14:09:53.430Z,8.83
2023-04-24T14:12:20.769Z,8.87
2023-04-24T14:14:49.060Z,8.88
2023-04-24T14:17:15.885Z,8.89
2023-04-24T14:19:42.321Z,8.85
2023-04-24T14:22:08.843Z,8.85
2023-04-24T14:24:38.412Z,8.75
2023-04-24T14:27:04.956Z,8.73
2023-04-24T14:29:32.321Z,8.72
2023-04-24T14:31:59.736Z,8.65
2023-04-24T14:34:26.350Z,8.65
2023-04-24T14:36:53.501Z,8.55
2023-04-24T14:42:12.037Z,8.64
2023-04-24T14:44:38.556Z,8.60
2023-04-24T14:47:05.231Z,8.55
2023-04-24T14:49:31.802Z,8.53
2023-04-24T14:51:58.224Z,8.52
2023-04-24T14:54:24.793Z,8.64
2023-04-24T14:56:51.659Z,8.66
2023-04-24T14:59:18.109Z,8.62
2023-04-24T15:01:44.629Z,8.63
2023-04-24T15:04:11.171Z,8.58
2023-04-24T15:06:37.638Z,8.58
2023-04-24T15:09:04.428Z,8.68
2023-04-24T15:11:31.001Z,8.63
2023-04-24T15:13:57.844Z,8.62
2023-04-24T15:16:25.501Z,8.52
2023-04-24T15:18:52.001Z,8.56
2023-04-24T15:21:20.472Z,8.54
2023-04-24T15:23:47.084Z,8.50
2023-04-24T15:26:13.978Z,8.48
2023-04-24T15:28:40.488Z,8.46
2023-04-24T15:31:06.982Z,8.57
2023-04-24T15:33:33.685Z,8.61
2023-04-24T15:36:00.450Z,8.64
2023-04-24T15:38:27.003Z,8.74
2023-04-24T15:40:53.454Z,8.69
2023-04-24T15:43:19.990Z,8.59
2023-04-24T15:45:46.490Z,8.63
2023-04-24T15:48:13.354Z,8.42
2023-04-24T15:50:39.797Z,8.42
2023-04-24T15:53:06.698Z,8.37
2023-04-24T15:55:33.698Z,8.40
2023-04-24T15:58:01.167Z,8.32
2023-04-24T16:00:34.064Z,8.21
2023-04-24T16:03:02.117Z,8.40
2023-04-24T16:05:29.219Z,8.27
2023-04-24T16:07:55.712Z,8.20
2023-04-24T16:10:24.260Z,7.98
2023-04-24T16:12:53.367Z,8.23
2023-04-24T16:15:20.453Z,8.10
2023-04-24T16:17:47.688Z,8.14
2023-04-24T16:20:14.426Z,8.03
2023-04-24T16:22:40.859Z,8.20
2023-04-24T16:25:08.700Z,8.14
2023-04-24T16:27:35.654Z,8.17
2023-04-24T16:30:02.888Z,8.02
2023-04-24T16:32:29.545Z,8.06
2023-04-24T16:34:56.028Z,8.13
2023-04-24T16:37:22.684Z,8.19
2023-04-24T16:39:49.167Z,8.06
2023-04-24T16:42:16.114Z,8.06
2023-04-24T16:44:43.206Z,8.00
2023-04-24T16:47:11.746Z,8.09
2023-04-24T16:49:38.299Z,8.10
2023-04-24T16:52:04.839Z,8.12
2023-04-24T16:54:34.559Z,8.17
2023-04-24T16:57:01.697Z,8.03
2023-04-24T16:59:33.802Z,7.98
2023-04-24T17:02:01.362Z,7.93
2023-04-24T17:04:28.055Z,7.88
2023-04-24T17:06:54.921Z,8.04
2023-04-24T17:09:21.572Z,7.94
2023-04-24T17:11:48.088Z,7.90
2023-04-24T17:14:14.590Z,7.71
2023-04-24T17:16:41.513Z,7.84
2023-04-24T17:19:07.979Z,7.83
2023-04-24T17:21:34.614Z,7.73
2023-04-24T17:24:01.072Z,8.02
2023-04-24T17:26:28.524Z,8.06
2023-04-24T17:28:55.262Z,8.15
2023-04-24T17:31:21.840Z,8.18
2023-04-24T17:33:48.289Z,7.99
2023-04-24T17:36:14.946Z,7.63
2023-04-24T17:38:41.504Z,7.54
2023-04-24T17:41:08.080Z,7.56
2023-04-24T17:43:34.631Z,7.58
2023-04-24T17:46:01.489Z,7.47
2023-04-24T17:48:28.077Z,7.35
2023-04-24T17:50:54.504Z,7.41
2023-04-24T17:53:21.761Z,7.42
2023-04-24T17:55:48.488Z,7.36
2023-04-24T17:58:15.448Z,7.41
2023-04-24T18:00:43.045Z,7.38
2023-04-24T18:03:09.841Z,7.22
2023-04-24T18:05:38.370Z,7.22
2023-04-24T18:08:05.934Z,7.25
2023-04-24T18:10:33.460Z,7.22
2023-04-24T18:12:59.900Z,7.21
2023-04-24T18:15:26.418Z,7.19
2023-04-24T18:17:52.923Z,7.16
2023-04-24T18:20:20.311Z,7.02
2023-04-24T18:22:47.089Z,6.96
2023-04-24T18:25:15.245Z,6.94
2023-04-24T18:27:42.233Z,6.88
2023-04-24T18:30:14.255Z,6.87
2023-04-24T18:32:41.243Z,6.81
2023-04-24T18:35:07.963Z,6.82
2023-04-24T18:37:34.460Z,6.65
2023-04-24T18:40:00.906Z,6.57
2023-04-24T18:42:27.332Z,6.54
2023-04-24T18:44:53.853Z,6.49
2023-04-24T18:47:20.329Z,6.44
2023-04-24T18:49:46.865Z,6.47
2023-04-24T18:52:13.342Z,6.41
2023-04-24T18:54:41.050Z,6.42
2023-04-24T18:57:07.510Z,6.45
2023-04-24T18:59:33.900Z,6.44
2023-04-24T19:02:00.558Z,6.45
2023-04-24T19:04:27.110Z,6.49
2023-04-24T19:06:53.493Z,6.56
2023-04-24T19:09:20.045Z,6.41
2023-04-24T19:11:46.646Z,6.48
2023-04-24T19:14:13.629Z,6.46
2023-04-24T19:16:40.442Z,6.40
2023-04-24T19:19:07.346Z,6.50
2023-04-24T19:21:34.915Z,6.38
2023-04-24T19:24:01.493Z,6.38
2023-04-24T19:26:31.205Z,6.39
2023-04-24T19:28:58.981Z,6.35
2023-04-24T19:31:26.519Z,6.31
2023-04-24T19:33:53.292Z,6.37
2023-04-24T19:36:19.964Z,6.38
2023-04-24T19:38:47.337Z,6.29
2023-04-24T19:41:14.160Z,6.08
2023-04-24T19:43:40.637Z,6.12
2023-04-24T19:46:07.442Z,6.16
2023-04-24T19:48:34.116Z,6.12
2023-04-24T19:51:01.535Z,6.06
2023-04-24T19:53:28.676Z,6.09
2023-04-24T19:55:55.369Z,6.08
2023-04-24T19:58:21.905Z,6.06
2023-04-24T20:00:48.417Z,5.94
2023-04-24T20:03:25.553Z,6.02
2023-04-24T20:05:58.336Z,6.05
2023-04-24T20:08:24.765Z,5.99
2023-04-24T20:10:52.265Z,5.95
2023-04-24T20:13:18.856Z,5.99
2023-04-24T20:15:45.733Z,5.92
2023-04-24T20:18:12.174Z,6.00
2023-04-24T20:20:41.487Z,5.97
2023-04-24T20:23:08.044Z,6.03
2023-04-24T20:25:35.742Z,6.08
2023-04-24T20:28:02.323Z,6.10
2023-04-24T20:30:28.959Z,6.06
2023-04-24T20:32:55.439Z,5.98
2023-04-24T20:35:21.960Z,5.89
2023-04-24T20:37:48.535Z,5.99
2023-04-24T20:40:15.176Z,6.01
2023-04-24T20:42:41.798Z,5.99
2023-04-24T20:45:08.819Z,5.95
2023-04-24T20:47:36.717Z,5.90
2023-04-24T20:50:04.224Z,5.89
2023-04-24T20:52:33.457Z,5.81
2023-04-24T20:55:00.054Z,5.75
2023-04-24T20:57:26.623Z,5.70
2023-04-24T20:59:53.259Z,5.63
2023-04-24T21:02:20.439Z,5.58
2023-04-24T21:04:47.151Z,5.54
2023-04-24T21:07:13.955Z,5.55
2023-04-24T21:09:40.519Z,5.50
2023-04-24T21:12:07.338Z,5.46
2023-04-24T21:14:33.816Z,5.40
2023-04-24T21:17:01.788Z,5.39
2023-04-24T21:19:28.312Z,5.43
2023-04-24T21:21:54.707Z,5.45
2023-04-24T21:24:22.751Z,5.43
2023-04-24T21:26:49.638Z,5.44
2023-04-24T21:29:16.300Z,5.43
2023-04-24T21:31:42.793Z,5.36
2023-04-24T21:34:09.272Z,5.40
2023-04-24T21:36:35.717Z,5.34
2023-04-24T21:39:02.125Z,5.31
2023-04-24T21:41:28.711Z,5.33
2023-04-24T21:43:55.507Z,5.33
2023-04-24T21:46:22.425Z,5.28
2023-04-24T21:48:48.882Z,5.23
2023-04-24T21:51:16.656Z,5.19
2023-04-24T21:53:43.149Z,5.14
2023-04-24T21:56:09.671Z,5.19
2023-04-24T21:58:36.876Z,5.19
2023-04-24T22:01:03.509Z,5.20
2023-04-24T22:03:30.537Z,5.11
2023-04-24T22:05:57.068Z,5.20
2023-04-24T22:08:24.732Z,5.19
2023-04-24T22:10:52.863Z,5.27
2023-04-24T22:13:19.602Z,5.26
2023-04-24T22:15:46.094Z,5.20
2023-04-24T22:18:13.500Z,5.28
2023-04-24T22:20:40.945Z,5.26
2023-04-24T22:23:07.390Z,5.26
2023-04-24T22:25:33.990Z,5.18
2023-04-24T22:28:00.464Z,5.26
2023-04-24T22:30:27.041Z,5.23
2023-04-24T22:32:54.607Z,5.30
2023-04-24T22:35:21.187Z,5.37
2023-04-24T22:37:50.885Z,5.33
2023-04-24T22:40:17.554Z,5.35
2023-04-24T22:42:43.995Z,5.38
2023-04-24T22:45:12.802Z,5.35
2023-04-24T22:47:40.121Z,5.32
2023-04-24T22:50:08.727Z,5.31
2023-04-24T22:52:35.819Z,5.16
2023-04-24T22:55:02.913Z,5.16
2023-04-24T22:57:29.889Z,5.16
2023-04-24T22:59:57.332Z,5.09
2023-04-24T23:02:23.908Z,5.06
2023-04-24T23:04:50.430Z,5.03
2023-04-24T23:07:16.938Z,4.94
2023-04-24T23:09:43.367Z,4.93
2023-04-24T23:12:09.839Z,4.96
2023-04-24T23:14:36.469Z,4.92
2023-04-24T23:17:03.929Z,4.91
2023-04-24T23:19:30.578Z,4.95
2023-04-24T23:21:57.072Z,4.88
2023-04-24T23:24:23.756Z,4.85
2023-04-24T23:26:50.383Z,4.82
2023-04-24T23:29:16.808Z,4.79
2023-04-24T23:31:43.249Z,4.67
2023-04-24T23:34:09.674Z,4.70
2023-04-24T23:36:36.588Z,4.67
2023-04-24T23:39:05.202Z,4.67
2023-04-24T23:41:31.682Z,4.65
2023-04-24T23:43:58.133Z,4.65
2023-04-24T23:46:24.648Z,4.63
2023-04-24T23:48:51.046Z,4.59
2023-04-24T23:51:17.786Z,4.59
2023-04-24T23:53:44.255Z,4.55
2023-04-24T23:56:10.933Z,4.57
2023-04-24T23:58:37.417Z,4.66
